sensor_id;sensor_type;location;lat;lon;timestamp;temperature;humidity
52245;DHT22;55759;51.586;-1.758;2022-07-10T00:00:37;16.60;57.30
52245;DHT22;55759;51.586;-1.758;2022-07-10T00:03:03;16.50;57.70
52245;DHT22;55759;51.586;-1.758;2022-07-10T00:05:30;16.50;57.90
52245;DHT22;55759;51.586;-1.758;2022-07-10T00:07:56;16.40;58.00
52245;DHT22;55759;51.586;-1.758;2022-07-10T00:10:23;16.30;58.20
52245;DHT22;55759;51.586;-1.758;2022-07-10T00:12:51;16.30;58.50
52245;DHT22;55759;51.586;-1.758;2022-07-10T00:15:18;16.20;58.70
52245;DHT22;55759;51.586;-1.758;2022-07-10T00:17:44;16.20;58.90
52245;DHT22;55759;51.586;-1.758;2022-07-10T00:20:10;16.10;59.20
52245;DHT22;55759;51.586;-1.758;2022-07-10T00:22:37;16.10;59.50
52245;DHT22;55759;51.586;-1.758;2022-07-10T00:25:05;16.10;59.50
52245;DHT22;55759;51.586;-1.758;2022-07-10T00:27:31;16.00;59.80
52245;DHT22;55759;51.586;-1.758;2022-07-10T00:29:57;15.90;60.10
52245;DHT22;55759;51.586;-1.758;2022-07-10T00:32:24;15.90;60.30
52245;DHT22;55759;51.586;-1.758;2022-07-10T00:34:50;15.90;60.50
52245;DHT22;55759;51.586;-1.758;2022-07-10T00:37:16;15.80;60.90
52245;DHT22;55759;51.586;-1.758;2022-07-10T00:39:42;15.80;61.40
52245;DHT22;55759;51.586;-1.758;2022-07-10T00:42:12;15.80;61.80
52245;DHT22;55759;51.586;-1.758;2022-07-10T00:44:42;15.70;62.00
52245;DHT22;55759;51.586;-1.758;2022-07-10T00:47:09;15.70;62.20
52245;DHT22;55759;51.586;-1.758;2022-07-10T00:49:37;15.60;62.40
52245;DHT22;55759;51.586;-1.758;2022-07-10T00:52:07;15.60;62.60
52245;DHT22;55759;51.586;-1.758;2022-07-10T00:54:34;15.50;62.90
52245;DHT22;55759;51.586;-1.758;2022-07-10T00:57:01;15.50;63.00
52245;DHT22;55759;51.586;-1.758;2022-07-10T00:59:28;15.40;63.30
52245;DHT22;55759;51.586;-1.758;2022-07-10T01:01:55;15.40;63.50
52245;DHT22;55759;51.586;-1.758;2022-07-10T01:04:21;15.30;63.70
52245;DHT22;55759;51.586;-1.758;2022-07-10T01:06:47;15.30;63.90
52245;DHT22;55759;51.586;-1.758;2022-07-10T01:09:12;15.30;64.10
52245;DHT22;55759;51.586;-1.758;2022-07-10T01:11:39;15.20;64.30
52245;DHT22;55759;51.586;-1.758;2022-07-10T01:14:05;15.10;64.80
52245;DHT22;55759;51.586;-1.758;2022-07-10T01:16:31;15.10;64.90
52245;DHT22;55759;51.586;-1.758;2022-07-10T01:18:58;15.10;65.20
52245;DHT22;55759;51.586;-1.758;2022-07-10T01:21:29;15.10;65.40
52245;DHT22;55759;51.586;-1.758;2022-07-10T01:23:55;15.00;65.50
52245;DHT22;55759;51.586;-1.758;2022-07-10T01:26:21;15.00;65.80
52245;DHT22;55759;51.586;-1.758;2022-07-10T01:28:50;14.90;66.00
52245;DHT22;55759;51.586;-1.758;2022-07-10T01:31:24;14.90;66.10
52245;DHT22;55759;51.586;-1.758;2022-07-10T01:33:50;14.90;66.20
52245;DHT22;55759;51.586;-1.758;2022-07-10T01:36:16;14.80;66.20
52245;DHT22;55759;51.586;-1.758;2022-07-10T01:38:42;14.80;66.10
52245;DHT22;55759;51.586;-1.758;2022-07-10T01:41:09;14.70;66.30
52245;DHT22;55759;51.586;-1.758;2022-07-10T01:43:38;14.70;66.50
52245;DHT22;55759;51.586;-1.758;2022-07-10T01:46:08;14.70;66.60
52245;DHT22;55759;51.586;-1.758;2022-07-10T01:48:37;14.60;66.70
52245;DHT22;55759;51.586;-1.758;2022-07-10T01:51:03;14.60;67.00
52245;DHT22;55759;51.586;-1.758;2022-07-10T01:53:29;14.60;67.10
52245;DHT22;55759;51.586;-1.758;2022-07-10T01:55:55;14.50;67.30
52245;DHT22;55759;51.586;-1.758;2022-07-10T01:58:21;14.50;67.50
52245;DHT22;55759;51.586;-1.758;2022-07-10T02:00:46;14.50;67.90
52245;DHT22;55759;51.586;-1.758;2022-07-10T02:03:12;14.50;68.20
52245;DHT22;55759;51.586;-1.758;2022-07-10T02:05:56;14.50;68.40
52245;DHT22;55759;51.586;-1.758;2022-07-10T02:08:22;14.50;68.30
52245;DHT22;55759;51.586;-1.758;2022-07-10T02:10:48;14.50;68.40
52245;DHT22;55759;51.586;-1.758;2022-07-10T02:13:14;14.50;68.50
52245;DHT22;55759;51.586;-1.758;2022-07-10T02:15:43;14.50;69.00
52245;DHT22;55759;51.586;-1.758;2022-07-10T02:18:08;14.40;69.00
52245;DHT22;55759;51.586;-1.758;2022-07-10T02:20:34;14.40;69.10
52245;DHT22;55759;51.586;-1.758;2022-07-10T02:23:02;14.40;69.20
52245;DHT22;55759;51.586;-1.758;2022-07-10T02:25:27;14.30;69.20
52245;DHT22;55759;51.586;-1.758;2022-07-10T02:27:53;14.20;69.30
52245;DHT22;55759;51.586;-1.758;2022-07-10T02:30:19;14.20;69.70
52245;DHT22;55759;51.586;-1.758;2022-07-10T02:32:45;14.20;69.70
52245;DHT22;55759;51.586;-1.758;2022-07-10T02:35:10;14.20;69.90
52245;DHT22;55759;51.586;-1.758;2022-07-10T02:37:36;14.10;69.90
52245;DHT22;55759;51.586;-1.758;2022-07-10T02:40:02;14.10;70.10
52245;DHT22;55759;51.586;-1.758;2022-07-10T02:42:28;14.10;70.30
52245;DHT22;55759;51.586;-1.758;2022-07-10T02:44:54;14.10;70.60
52245;DHT22;55759;51.586;-1.758;2022-07-10T02:47:19;14.10;70.60
52245;DHT22;55759;51.586;-1.758;2022-07-10T02:49:45;14.10;70.60
52245;DHT22;55759;51.586;-1.758;2022-07-10T02:52:11;14.00;70.50
52245;DHT22;55759;51.586;-1.758;2022-07-10T02:54:37;13.90;70.90
52245;DHT22;55759;51.586;-1.758;2022-07-10T02:57:03;13.90;71.00
52245;DHT22;55759;51.586;-1.758;2022-07-10T02:59:28;13.90;71.30
52245;DHT22;55759;51.586;-1.758;2022-07-10T03:01:54;13.90;71.40
52245;DHT22;55759;51.586;-1.758;2022-07-10T03:04:23;13.90;71.30
52245;DHT22;55759;51.586;-1.758;2022-07-10T03:06:48;13.80;71.30
52245;DHT22;55759;51.586;-1.758;2022-07-10T03:09:14;13.80;71.80
52245;DHT22;55759;51.586;-1.758;2022-07-10T03:11:40;13.80;72.00
52245;DHT22;55759;51.586;-1.758;2022-07-10T03:14:05;13.80;72.20
52245;DHT22;55759;51.586;-1.758;2022-07-10T03:16:31;13.70;72.40
52245;DHT22;55759;51.586;-1.758;2022-07-10T03:18:57;13.70;72.60
52245;DHT22;55759;51.586;-1.758;2022-07-10T03:21:23;13.70;72.90
52245;DHT22;55759;51.586;-1.758;2022-07-10T03:23:49;13.60;73.00
52245;DHT22;55759;51.586;-1.758;2022-07-10T03:26:15;13.60;72.90
52245;DHT22;55759;51.586;-1.758;2022-07-10T03:28:41;13.60;73.50
52245;DHT22;55759;51.586;-1.758;2022-07-10T03:31:07;13.60;73.70
52245;DHT22;55759;51.586;-1.758;2022-07-10T03:33:32;13.50;73.80
52245;DHT22;55759;51.586;-1.758;2022-07-10T03:35:59;13.50;74.00
52245;DHT22;55759;51.586;-1.758;2022-07-10T03:38:29;13.50;74.10
52245;DHT22;55759;51.586;-1.758;2022-07-10T03:40:55;13.50;74.10
52245;DHT22;55759;51.586;-1.758;2022-07-10T03:43:20;13.50;74.30
52245;DHT22;55759;51.586;-1.758;2022-07-10T03:45:46;13.40;74.40
52245;DHT22;55759;51.586;-1.758;2022-07-10T03:48:12;13.40;74.50
52245;DHT22;55759;51.586;-1.758;2022-07-10T03:50:37;13.30;74.50
52245;DHT22;55759;51.586;-1.758;2022-07-10T03:53:03;13.30;74.70
52245;DHT22;55759;51.586;-1.758;2022-07-10T03:55:29;13.30;75.10
52245;DHT22;55759;51.586;-1.758;2022-07-10T03:57:54;13.30;75.10
52245;DHT22;55759;51.586;-1.758;2022-07-10T04:00:26;13.30;75.10
52245;DHT22;55759;51.586;-1.758;2022-07-10T04:03:07;13.30;75.20
52245;DHT22;55759;51.586;-1.758;2022-07-10T04:05:33;13.30;75.70
52245;DHT22;55759;51.586;-1.758;2022-07-10T04:08:02;13.30;76.30
52245;DHT22;55759;51.586;-1.758;2022-07-10T04:10:29;13.30;76.50
52245;DHT22;55759;51.586;-1.758;2022-07-10T04:12:55;13.20;76.70
52245;DHT22;55759;51.586;-1.758;2022-07-10T04:15:21;13.20;76.90
52245;DHT22;55759;51.586;-1.758;2022-07-10T04:17:48;13.20;77.60
52245;DHT22;55759;51.586;-1.758;2022-07-10T04:20:15;13.30;78.00
52245;DHT22;55759;51.586;-1.758;2022-07-10T04:22:41;13.20;78.20
52245;DHT22;55759;51.586;-1.758;2022-07-10T04:25:08;13.20;78.30
52245;DHT22;55759;51.586;-1.758;2022-07-10T04:27:33;13.20;78.60
52245;DHT22;55759;51.586;-1.758;2022-07-10T04:30:00;13.20;78.80
52245;DHT22;55759;51.586;-1.758;2022-07-10T04:32:25;13.20;78.80
52245;DHT22;55759;51.586;-1.758;2022-07-10T04:34:53;13.20;78.80
52245;DHT22;55759;51.586;-1.758;2022-07-10T04:37:19;13.20;78.90
52245;DHT22;55759;51.586;-1.758;2022-07-10T04:39:44;13.20;79.00
52245;DHT22;55759;51.586;-1.758;2022-07-10T04:42:10;13.20;79.00
52245;DHT22;55759;51.586;-1.758;2022-07-10T04:44:36;13.30;79.60
52245;DHT22;55759;51.586;-1.758;2022-07-10T04:47:02;13.40;79.70
52245;DHT22;55759;51.586;-1.758;2022-07-10T04:49:28;13.40;79.80
52245;DHT22;55759;51.586;-1.758;2022-07-10T04:51:54;13.40;79.80
52245;DHT22;55759;51.586;-1.758;2022-07-10T04:54:22;13.60;80.00
52245;DHT22;55759;51.586;-1.758;2022-07-10T04:56:48;13.60;79.90
52245;DHT22;55759;51.586;-1.758;2022-07-10T04:59:13;13.60;80.10
52245;DHT22;55759;51.586;-1.758;2022-07-10T05:01:39;13.70;80.20
52245;DHT22;55759;51.586;-1.758;2022-07-10T05:04:05;13.70;80.20
52245;DHT22;55759;51.586;-1.758;2022-07-10T05:06:31;13.80;80.30
52245;DHT22;55759;51.586;-1.758;2022-07-10T05:08:57;13.90;80.40
52245;DHT22;55759;51.586;-1.758;2022-07-10T05:11:23;14.00;80.30
52245;DHT22;55759;51.586;-1.758;2022-07-10T05:13:49;14.10;80.20
52245;DHT22;55759;51.586;-1.758;2022-07-10T05:16:17;14.10;80.10
52245;DHT22;55759;51.586;-1.758;2022-07-10T05:18:44;14.10;80.10
52245;DHT22;55759;51.586;-1.758;2022-07-10T05:21:09;14.20;80.00
52245;DHT22;55759;51.586;-1.758;2022-07-10T05:23:36;14.30;79.90
52245;DHT22;55759;51.586;-1.758;2022-07-10T05:26:02;14.30;79.80
52245;DHT22;55759;51.586;-1.758;2022-07-10T05:28:28;14.40;79.80
52245;DHT22;55759;51.586;-1.758;2022-07-10T05:30:54;14.40;79.80
52245;DHT22;55759;51.586;-1.758;2022-07-10T05:33:19;14.50;79.80
52245;DHT22;55759;51.586;-1.758;2022-07-10T05:35:45;14.60;79.50
52245;DHT22;55759;51.586;-1.758;2022-07-10T05:38:11;14.60;79.60
52245;DHT22;55759;51.586;-1.758;2022-07-10T05:40:37;14.60;79.50
52245;DHT22;55759;51.586;-1.758;2022-07-10T05:43:02;14.60;79.50
52245;DHT22;55759;51.586;-1.758;2022-07-10T05:45:28;14.60;79.40
52245;DHT22;55759;51.586;-1.758;2022-07-10T05:47:55;14.70;79.30
52245;DHT22;55759;51.586;-1.758;2022-07-10T05:50:20;14.80;79.10
52245;DHT22;55759;51.586;-1.758;2022-07-10T05:52:46;14.90;79.00
52245;DHT22;55759;51.586;-1.758;2022-07-10T05:55:12;15.00;78.70
52245;DHT22;55759;51.586;-1.758;2022-07-10T05:57:38;15.10;78.60
52245;DHT22;55759;51.586;-1.758;2022-07-10T06:00:05;15.20;78.20
52245;DHT22;55759;51.586;-1.758;2022-07-10T06:02:32;15.20;78.10
52245;DHT22;55759;51.586;-1.758;2022-07-10T06:04:57;15.30;77.80
52245;DHT22;55759;51.586;-1.758;2022-07-10T06:07:23;15.40;77.60
52245;DHT22;55759;51.586;-1.758;2022-07-10T06:09:49;15.40;77.40
52245;DHT22;55759;51.586;-1.758;2022-07-10T06:12:14;15.50;77.50
52245;DHT22;55759;51.586;-1.758;2022-07-10T06:14:43;15.60;77.20
52245;DHT22;55759;51.586;-1.758;2022-07-10T06:17:09;15.60;76.80
52245;DHT22;55759;51.586;-1.758;2022-07-10T06:19:35;15.70;77.00
52245;DHT22;55759;51.586;-1.758;2022-07-10T06:22:00;15.80;76.40
52245;DHT22;55759;51.586;-1.758;2022-07-10T06:24:44;15.90;76.30
52245;DHT22;55759;51.586;-1.758;2022-07-10T06:27:10;16.00;76.00
52245;DHT22;55759;51.586;-1.758;2022-07-10T06:29:36;16.10;76.20
52245;DHT22;55759;51.586;-1.758;2022-07-10T06:32:02;16.10;75.90
52245;DHT22;55759;51.586;-1.758;2022-07-10T06:34:28;16.20;75.70
52245;DHT22;55759;51.586;-1.758;2022-07-10T06:36:54;16.30;75.20
52245;DHT22;55759;51.586;-1.758;2022-07-10T06:39:20;16.40;75.10
52245;DHT22;55759;51.586;-1.758;2022-07-10T06:41:45;16.50;74.90
52245;DHT22;55759;51.586;-1.758;2022-07-10T06:44:11;16.50;74.60
52245;DHT22;55759;51.586;-1.758;2022-07-10T06:46:37;16.50;74.70
52245;DHT22;55759;51.586;-1.758;2022-07-10T06:49:03;16.70;74.50
52245;DHT22;55759;51.586;-1.758;2022-07-10T06:51:29;16.80;73.90
52245;DHT22;55759;51.586;-1.758;2022-07-10T06:53:55;16.90;74.00
52245;DHT22;55759;51.586;-1.758;2022-07-10T06:56:21;17.00;74.00
52245;DHT22;55759;51.586;-1.758;2022-07-10T06:58:47;17.10;73.30
52245;DHT22;55759;51.586;-1.758;2022-07-10T07:01:13;17.20;73.30
52245;DHT22;55759;51.586;-1.758;2022-07-10T07:03:38;17.30;72.70
52245;DHT22;55759;51.586;-1.758;2022-07-10T07:06:04;17.40;72.50
52245;DHT22;55759;51.586;-1.758;2022-07-10T07:08:30;17.40;72.10
52245;DHT22;55759;51.586;-1.758;2022-07-10T07:10:56;17.60;72.60
52245;DHT22;55759;51.586;-1.758;2022-07-10T07:13:22;17.60;71.90
52245;DHT22;55759;51.586;-1.758;2022-07-10T07:15:47;17.70;71.90
52245;DHT22;55759;51.586;-1.758;2022-07-10T07:18:26;17.90;71.00
52245;DHT22;55759;51.586;-1.758;2022-07-10T07:21:00;18.00;70.00
52245;DHT22;55759;51.586;-1.758;2022-07-10T07:23:45;18.10;69.80
52245;DHT22;55759;51.586;-1.758;2022-07-10T07:26:10;18.10;69.70
52245;DHT22;55759;51.586;-1.758;2022-07-10T07:28:36;18.10;69.30
52245;DHT22;55759;51.586;-1.758;2022-07-10T07:31:02;18.20;69.00
52245;DHT22;55759;51.586;-1.758;2022-07-10T07:33:28;18.30;68.50
52245;DHT22;55759;51.586;-1.758;2022-07-10T07:35:53;18.40;68.20
52245;DHT22;55759;51.586;-1.758;2022-07-10T07:38:19;18.40;67.90
52245;DHT22;55759;51.586;-1.758;2022-07-10T07:40:45;18.50;68.20
52245;DHT22;55759;51.586;-1.758;2022-07-10T07:43:11;18.60;68.50
52245;DHT22;55759;51.586;-1.758;2022-07-10T07:45:37;18.70;67.90
52245;DHT22;55759;51.586;-1.758;2022-07-10T07:48:03;18.90;67.30
52245;DHT22;55759;51.586;-1.758;2022-07-10T07:50:31;19.10;66.90
52245;DHT22;55759;51.586;-1.758;2022-07-10T07:52:58;19.20;66.50
52245;DHT22;55759;51.586;-1.758;2022-07-10T07:55:24;19.40;66.00
52245;DHT22;55759;51.586;-1.758;2022-07-10T07:57:54;19.40;65.40
52245;DHT22;55759;51.586;-1.758;2022-07-10T08:00:22;19.50;65.50
52245;DHT22;55759;51.586;-1.758;2022-07-10T08:02:51;19.70;65.10
52245;DHT22;55759;51.586;-1.758;2022-07-10T08:05:18;19.80;64.80
52245;DHT22;55759;51.586;-1.758;2022-07-10T08:07:44;19.90;64.40
52245;DHT22;55759;51.586;-1.758;2022-07-10T08:10:12;20.00;63.90
52245;DHT22;55759;51.586;-1.758;2022-07-10T08:12:39;20.10;63.20
52245;DHT22;55759;51.586;-1.758;2022-07-10T08:15:10;20.20;62.30
52245;DHT22;55759;51.586;-1.758;2022-07-10T08:17:36;20.30;61.70
52245;DHT22;55759;51.586;-1.758;2022-07-10T08:20:02;20.30;61.40
52245;DHT22;55759;51.586;-1.758;2022-07-10T08:22:28;20.30;61.10
52245;DHT22;55759;51.586;-1.758;2022-07-10T08:24:54;20.30;61.10
52245;DHT22;55759;51.586;-1.758;2022-07-10T08:27:22;20.20;60.70
52245;DHT22;55759;51.586;-1.758;2022-07-10T08:29:48;20.20;61.00
52245;DHT22;55759;51.586;-1.758;2022-07-10T08:32:13;20.30;61.90
52245;DHT22;55759;51.586;-1.758;2022-07-10T08:34:39;20.40;61.20
52245;DHT22;55759;51.586;-1.758;2022-07-10T08:37:05;20.40;60.40
52245;DHT22;55759;51.586;-1.758;2022-07-10T08:39:31;20.50;60.00
52245;DHT22;55759;51.586;-1.758;2022-07-10T08:41:57;20.60;60.40
52245;DHT22;55759;51.586;-1.758;2022-07-10T08:44:22;20.70;59.90
52245;DHT22;55759;51.586;-1.758;2022-07-10T08:46:48;20.80;59.20
52245;DHT22;55759;51.586;-1.758;2022-07-10T08:49:16;20.80;58.90
52245;DHT22;55759;51.586;-1.758;2022-07-10T08:51:57;20.90;58.90
52245;DHT22;55759;51.586;-1.758;2022-07-10T08:54:23;20.90;58.40
52245;DHT22;55759;51.586;-1.758;2022-07-10T08:56:51;21.00;58.20
52245;DHT22;55759;51.586;-1.758;2022-07-10T08:59:18;21.00;57.90
52245;DHT22;55759;51.586;-1.758;2022-07-10T09:01:44;21.10;57.80
52245;DHT22;55759;51.586;-1.758;2022-07-10T09:04:17;21.10;58.50
52245;DHT22;55759;51.586;-1.758;2022-07-10T09:06:46;21.20;57.80
52245;DHT22;55759;51.586;-1.758;2022-07-10T09:09:12;21.40;57.60
52245;DHT22;55759;51.586;-1.758;2022-07-10T09:11:39;21.50;57.60
52245;DHT22;55759;51.586;-1.758;2022-07-10T09:14:14;21.60;56.80
52245;DHT22;55759;51.586;-1.758;2022-07-10T09:16:45;21.80;57.00
52245;DHT22;55759;51.586;-1.758;2022-07-10T09:19:23;21.90;56.30
52245;DHT22;55759;51.586;-1.758;2022-07-10T09:21:50;22.00;55.80
52245;DHT22;55759;51.586;-1.758;2022-07-10T09:24:17;22.10;55.70
52245;DHT22;55759;51.586;-1.758;2022-07-10T09:27:00;22.20;55.40
52245;DHT22;55759;51.586;-1.758;2022-07-10T09:29:26;22.30;54.40
52245;DHT22;55759;51.586;-1.758;2022-07-10T09:31:54;22.30;53.50
52245;DHT22;55759;51.586;-1.758;2022-07-10T09:34:40;22.30;53.70
52245;DHT22;55759;51.586;-1.758;2022-07-10T09:37:25;22.40;53.90
52245;DHT22;55759;51.586;-1.758;2022-07-10T09:39:58;22.50;53.90
52245;DHT22;55759;51.586;-1.758;2022-07-10T09:42:35;22.60;53.00
52245;DHT22;55759;51.586;-1.758;2022-07-10T09:47:47;22.60;53.50
52245;DHT22;55759;51.586;-1.758;2022-07-10T09:52:55;22.90;53.80
52245;DHT22;55759;51.586;-1.758;2022-07-10T09:55:23;23.10;53.20
52245;DHT22;55759;51.586;-1.758;2022-07-10T09:58:02;23.10;52.90
52245;DHT22;55759;51.586;-1.758;2022-07-10T10:00:39;23.30;52.00
52245;DHT22;55759;51.586;-1.758;2022-07-10T10:03:11;23.40;52.10
52245;DHT22;55759;51.586;-1.758;2022-07-10T10:05:55;23.50;51.60
52245;DHT22;55759;51.586;-1.758;2022-07-10T10:08:37;23.60;50.50
52245;DHT22;55759;51.586;-1.758;2022-07-10T10:11:14;23.70;49.10
52245;DHT22;55759;51.586;-1.758;2022-07-10T10:13:41;23.70;47.90
52245;DHT22;55759;51.586;-1.758;2022-07-10T10:16:09;23.80;48.00
52245;DHT22;55759;51.586;-1.758;2022-07-10T10:18:36;23.90;48.40
52245;DHT22;55759;51.586;-1.758;2022-07-10T10:21:03;24.00;48.00
52245;DHT22;55759;51.586;-1.758;2022-07-10T10:23:32;24.20;48.20
52245;DHT22;55759;51.586;-1.758;2022-07-10T10:25:59;24.60;45.90
52245;DHT22;55759;51.586;-1.758;2022-07-10T10:28:25;25.00;43.40
52245;DHT22;55759;51.586;-1.758;2022-07-10T10:31:02;25.70;42.30
52245;DHT22;55759;51.586;-1.758;2022-07-10T10:36:01;27.70;37.80
52245;DHT22;55759;51.586;-1.758;2022-07-10T10:41:28;30.00;33.80
52245;DHT22;55759;51.586;-1.758;2022-07-10T10:46:35;32.60;30.30
52245;DHT22;55759;51.586;-1.758;2022-07-10T10:49:05;33.60;29.70
52245;DHT22;55759;51.586;-1.758;2022-07-10T10:52:00;34.80;28.30
52245;DHT22;55759;51.586;-1.758;2022-07-10T10:54:28;36.30;27.10
52245;DHT22;55759;51.586;-1.758;2022-07-10T10:57:17;37.40;24.50
52245;DHT22;55759;51.586;-1.758;2022-07-10T10:59:50;38.40;23.80
52245;DHT22;55759;51.586;-1.758;2022-07-10T11:02:26;39.10;22.00
52245;DHT22;55759;51.586;-1.758;2022-07-10T11:08:02;40.90;21.70
52245;DHT22;55759;51.586;-1.758;2022-07-10T11:10:30;41.90;19.50
52245;DHT22;55759;51.586;-1.758;2022-07-10T11:15:35;43.10;18.50
52245;DHT22;55759;51.586;-1.758;2022-07-10T11:18:13;42.70;18.00
52245;DHT22;55759;51.586;-1.758;2022-07-10T11:20:41;42.40;17.70
52245;DHT22;55759;51.586;-1.758;2022-07-10T11:26:08;41.90;18.60
52245;DHT22;55759;51.586;-1.758;2022-07-10T11:28:53;41.50;19.50
52245;DHT22;55759;51.586;-1.758;2022-07-10T11:31:24;41.70;19.30
52245;DHT22;55759;51.586;-1.758;2022-07-10T11:33:52;42.40;18.70
52245;DHT22;55759;51.586;-1.758;2022-07-10T11:36:23;43.10;18.10
52245;DHT22;55759;51.586;-1.758;2022-07-10T11:39:03;44.00;17.50
52245;DHT22;55759;51.586;-1.758;2022-07-10T11:41:30;45.50;17.00
52245;DHT22;55759;51.586;-1.758;2022-07-10T11:44:01;46.80;16.40
52245;DHT22;55759;51.586;-1.758;2022-07-10T11:46:31;47.70;15.70
52245;DHT22;55759;51.586;-1.758;2022-07-10T11:48:57;48.10;15.10
52245;DHT22;55759;51.586;-1.758;2022-07-10T11:51:34;48.70;14.30
52245;DHT22;55759;51.586;-1.758;2022-07-10T11:54:20;49.40;14.00
52245;DHT22;55759;51.586;-1.758;2022-07-10T11:56:52;50.40;13.40
52245;DHT22;55759;51.586;-1.758;2022-07-10T11:59:23;51.00;13.00
52245;DHT22;55759;51.586;-1.758;2022-07-10T12:01:55;50.10;12.80
52245;DHT22;55759;51.586;-1.758;2022-07-10T12:04:23;49.50;13.40
52245;DHT22;55759;51.586;-1.758;2022-07-10T12:06:52;49.80;13.10
52245;DHT22;55759;51.586;-1.758;2022-07-10T12:09:23;48.70;13.10
52245;DHT22;55759;51.586;-1.758;2022-07-10T12:12:03;48.00;13.40
52245;DHT22;55759;51.586;-1.758;2022-07-10T12:14:30;48.30;13.20
52245;DHT22;55759;51.586;-1.758;2022-07-10T12:16:57;48.00;13.60
52245;DHT22;55759;51.586;-1.758;2022-07-10T12:19:25;46.80;13.70
52245;DHT22;55759;51.586;-1.758;2022-07-10T12:21:53;46.70;14.10
52245;DHT22;55759;51.586;-1.758;2022-07-10T12:24:19;47.50;13.80
52245;DHT22;55759;51.586;-1.758;2022-07-10T12:26:46;46.70;14.10
52245;DHT22;55759;51.586;-1.758;2022-07-10T12:29:27;46.50;14.20
52245;DHT22;55759;51.586;-1.758;2022-07-10T12:31:58;47.00;14.30
52245;DHT22;55759;51.586;-1.758;2022-07-10T12:34:38;47.70;13.30
52245;DHT22;55759;51.586;-1.758;2022-07-10T12:37:13;47.90;12.90
52245;DHT22;55759;51.586;-1.758;2022-07-10T12:39:53;48.10;13.00
52245;DHT22;55759;51.586;-1.758;2022-07-10T12:42:29;49.00;12.70
52245;DHT22;55759;51.586;-1.758;2022-07-10T12:45:09;49.80;12.40
52245;DHT22;55759;51.586;-1.758;2022-07-10T12:47:48;51.30;11.90
52245;DHT22;55759;51.586;-1.758;2022-07-10T12:50:15;52.70;11.10
52245;DHT22;55759;51.586;-1.758;2022-07-10T12:52:46;53.60;10.90
52245;DHT22;55759;51.586;-1.758;2022-07-10T12:57:46;53.70;10.40
52245;DHT22;55759;51.586;-1.758;2022-07-10T13:00:13;53.50;10.50
52245;DHT22;55759;51.586;-1.758;2022-07-10T13:02:39;53.40;10.60
52245;DHT22;55759;51.586;-1.758;2022-07-10T13:05:05;52.90;11.00
52245;DHT22;55759;51.586;-1.758;2022-07-10T13:07:35;50.90;11.10
52245;DHT22;55759;51.586;-1.758;2022-07-10T13:10:06;48.30;11.50
52245;DHT22;55759;51.586;-1.758;2022-07-10T13:12:32;46.90;11.40
52245;DHT22;55759;51.586;-1.758;2022-07-10T13:14:58;46.00;11.00
52245;DHT22;55759;51.586;-1.758;2022-07-10T13:17:24;46.70;11.30
52245;DHT22;55759;51.586;-1.758;2022-07-10T13:19:50;48.20;10.50
52245;DHT22;55759;51.586;-1.758;2022-07-10T13:22:17;49.60;9.40
52245;DHT22;55759;51.586;-1.758;2022-07-10T13:24:43;51.10;9.20
52245;DHT22;55759;51.586;-1.758;2022-07-10T13:27:09;52.00;8.90
52245;DHT22;55759;51.586;-1.758;2022-07-10T13:29:35;53.00;8.70
52245;DHT22;55759;51.586;-1.758;2022-07-10T13:32:00;53.50;8.30
52245;DHT22;55759;51.586;-1.758;2022-07-10T13:34:26;53.90;8.60
52245;DHT22;55759;51.586;-1.758;2022-07-10T13:36:52;54.80;8.70
52245;DHT22;55759;51.586;-1.758;2022-07-10T13:39:20;55.60;8.40
52245;DHT22;55759;51.586;-1.758;2022-07-10T13:41:45;55.90;8.10
52245;DHT22;55759;51.586;-1.758;2022-07-10T13:44:11;55.30;8.10
52245;DHT22;55759;51.586;-1.758;2022-07-10T13:46:37;54.80;8.40
52245;DHT22;55759;51.586;-1.758;2022-07-10T13:49:05;55.30;8.40
52245;DHT22;55759;51.586;-1.758;2022-07-10T13:51:31;56.50;8.20
52245;DHT22;55759;51.586;-1.758;2022-07-10T13:53:57;57.40;8.20
52245;DHT22;55759;51.586;-1.758;2022-07-10T13:56:23;58.20;8.20
52245;DHT22;55759;51.586;-1.758;2022-07-10T13:58:51;58.20;7.70
52245;DHT22;55759;51.586;-1.758;2022-07-10T14:01:17;57.70;7.80
52245;DHT22;55759;51.586;-1.758;2022-07-10T14:03:42;56.60;8.60
52245;DHT22;55759;51.586;-1.758;2022-07-10T14:06:08;56.00;8.80
52245;DHT22;55759;51.586;-1.758;2022-07-10T14:08:36;55.20;9.40
52245;DHT22;55759;51.586;-1.758;2022-07-10T14:11:02;54.40;9.40
52245;DHT22;55759;51.586;-1.758;2022-07-10T14:13:28;53.80;9.90
52245;DHT22;55759;51.586;-1.758;2022-07-10T14:15:54;54.60;9.60
52245;DHT22;55759;51.586;-1.758;2022-07-10T14:18:20;55.50;9.40
52245;DHT22;55759;51.586;-1.758;2022-07-10T14:21:04;55.80;9.00
52245;DHT22;55759;51.586;-1.758;2022-07-10T14:23:30;56.40;8.80
52245;DHT22;55759;51.586;-1.758;2022-07-10T14:25:57;56.90;8.60
52245;DHT22;55759;51.586;-1.758;2022-07-10T14:28:23;57.60;8.50
52245;DHT22;55759;51.586;-1.758;2022-07-10T14:30:49;57.90;8.30
52245;DHT22;55759;51.586;-1.758;2022-07-10T14:33:18;56.90;8.30
52245;DHT22;55759;51.586;-1.758;2022-07-10T14:35:44;56.40;9.00
52245;DHT22;55759;51.586;-1.758;2022-07-10T14:38:09;56.30;8.80
52245;DHT22;55759;51.586;-1.758;2022-07-10T14:40:35;56.40;8.80
52245;DHT22;55759;51.586;-1.758;2022-07-10T14:43:01;56.70;8.80
52245;DHT22;55759;51.586;-1.758;2022-07-10T14:45:26;57.10;8.50
52245;DHT22;55759;51.586;-1.758;2022-07-10T14:47:52;57.50;8.70
52245;DHT22;55759;51.586;-1.758;2022-07-10T14:50:21;56.80;9.10
52245;DHT22;55759;51.586;-1.758;2022-07-10T14:52:47;57.00;9.20
52245;DHT22;55759;51.586;-1.758;2022-07-10T14:55:12;57.50;9.20
52245;DHT22;55759;51.586;-1.758;2022-07-10T14:57:38;56.30;9.40
52245;DHT22;55759;51.586;-1.758;2022-07-10T15:00:04;55.80;9.50
52245;DHT22;55759;51.586;-1.758;2022-07-10T15:02:30;56.40;9.50
52245;DHT22;55759;51.586;-1.758;2022-07-10T15:04:56;57.10;9.20
52245;DHT22;55759;51.586;-1.758;2022-07-10T15:07:22;57.50;9.30
52245;DHT22;55759;51.586;-1.758;2022-07-10T15:09:47;57.90;9.30
52245;DHT22;55759;51.586;-1.758;2022-07-10T15:12:13;58.30;8.80
52245;DHT22;55759;51.586;-1.758;2022-07-10T15:14:39;58.40;8.60
52245;DHT22;55759;51.586;-1.758;2022-07-10T15:17:04;58.10;8.60
52245;DHT22;55759;51.586;-1.758;2022-07-10T15:19:30;58.10;8.70
52245;DHT22;55759;51.586;-1.758;2022-07-10T15:21:56;57.40;8.70
52245;DHT22;55759;51.586;-1.758;2022-07-10T15:24:22;56.90;9.00
52245;DHT22;55759;51.586;-1.758;2022-07-10T15:26:48;57.10;9.10
52245;DHT22;55759;51.586;-1.758;2022-07-10T15:29:15;57.50;9.10
52245;DHT22;55759;51.586;-1.758;2022-07-10T15:31:40;57.90;8.90
52245;DHT22;55759;51.586;-1.758;2022-07-10T15:34:08;58.00;8.80
52245;DHT22;55759;51.586;-1.758;2022-07-10T15:36:34;57.50;9.00
52245;DHT22;55759;51.586;-1.758;2022-07-10T15:39:00;57.20;8.80
52245;DHT22;55759;51.586;-1.758;2022-07-10T15:41:26;56.90;9.20
52245;DHT22;55759;51.586;-1.758;2022-07-10T15:43:52;56.40;9.10
52245;DHT22;55759;51.586;-1.758;2022-07-10T15:46:17;56.30;9.40